Time;durP1;ratioP1;P1;durP2;ratioP2;P2;SDS_P1;SDS_P2;PMS_P1;PMS_P2;Temp;Humidity;BMP_temperature;BMP_pressure;BME280_temperature;BME280_humidity;BME280_pressure;Samples;Min_cycle;Max_cycle;Signal;HPM_P1;HPM_P2
2021/06/13 00:02:14;;;;;;;0.20;0.20;;;;;;;10.11;71.99;101601.47;5048130;28;20406;-86
2021/06/13 00:04:41;;;;;;;0.20;0.20;;;;;;;10.15;72.22;101600.72;5034390;28;20049;-87
2021/06/13 00:08:09;;;;;;;0.13;0.13;;;;;;;10.07;73.12;101601.16;5060528;28;20049;-85
2021/06/13 00:11:34;;;;;;;0.10;0.10;;;;;;;10.04;74.45;101604.41;5068777;28;20045;-85
2021/06/13 00:14:04;;;;;;;0.20;0.20;;;;;;;9.78;72.93;101563.28;5046778;28;20053;-85
2021/06/13 00:16:32;;;;;;;0.20;0.20;;;;;;;10.00;72.23;101595.91;5074612;28;20040;-85
2021/06/13 00:19:00;;;;;;;0.28;0.28;;;;;;;9.59;73.63;101538.31;5057406;28;20064;-84
2021/06/13 00:21:44;;;;;;;0.20;0.20;;;;;;;9.68;74.00;101552.28;5040145;28;20049;-86
2021/06/13 00:25:19;;;;;;;0.20;0.20;;;;;;;9.94;72.90;101599.63;5034794;28;20136;-85
2021/06/13 00:27:46;;;;;;;0.10;0.10;;;;;;;9.68;73.04;101566.72;5053276;28;20119;-86
2021/06/13 00:31:09;;;;;;;0.20;0.20;;;;;;;9.96;73.20;101607.56;5062158;28;20048;-86
2021/06/13 00:38:03;;;;;;;0.10;0.10;;;;;;;9.91;73.91;101607.50;5044318;28;20389;-85
2021/06/13 00:41:07;;;;;;;0.20;0.20;;;;;;;9.81;74.76;101622.59;5033932;28;20045;-85
2021/06/13 00:44:13;;;;;;;0.20;0.20;;;;;;;9.84;73.61;101622.06;5049303;28;20064;-84
2021/06/13 00:46:41;;;;;;;0.20;0.20;;;;;;;9.63;73.82;101595.72;5056741;28;20056;-86
2021/06/13 00:49:18;;;;;;;0.20;0.20;;;;;;;9.50;74.02;101581.41;5052782;28;20053;-85
2021/06/13 00:52:01;;;;;;;0.10;0.10;;;;;;;9.41;73.13;101546.78;5041847;28;20051;-84
2021/06/13 00:55:00;;;;;;;0.20;0.20;;;;;;;9.86;74.03;101624.56;5054668;28;20053;-84
2021/06/13 00:57:29;;;;;;;0.20;0.20;;;;;;;9.66;73.98;101612.31;5032649;28;20056;-85
2021/06/13 01:04:22;;;;;;;0.20;0.20;;;;;;;9.65;74.29;101604.44;5059548;28;20043;-85
2021/06/13 01:07:02;;;;;;;0.10;0.10;;;;;;;9.43;74.78;101583.50;5069959;28;20405;-85
2021/06/13 01:09:34;;;;;;;0.10;0.10;;;;;;;9.59;73.59;101608.16;5066310;28;20065;-85
2021/06/13 01:12:08;;;;;;;0.17;0.17;;;;;;;9.77;72.55;101624.16;5057618;28;20055;-85
2021/06/13 01:14:41;;;;;;;0.20;0.20;;;;;;;9.70;73.96;101621.63;5070579;28;20841;-84
2021/06/13 01:17:16;;;;;;;0.20;0.20;;;;;;;9.53;72.55;101574.66;5056214;28;20053;-85
2021/06/13 01:24:17;;;;;;;0.20;0.20;;;;;;;9.41;74.32;101590.25;5043582;28;20036;-86
2021/06/13 01:27:25;;;;;;;0.20;0.20;;;;;;;9.29;75.07;101602.00;5031898;28;20718;-85
2021/06/13 01:33:22;;;;;;;0.20;0.20;;;;;;;9.30;74.81;101600.94;5064050;28;20040;-85
2021/06/13 01:36:19;;;;;;;0.20;0.20;;;;;;;9.48;76.76;101635.16;5053945;28;20056;-85
2021/06/13 01:38:54;;;;;;;0.20;0.20;;;;;;;9.27;74.99;101601.44;5042897;28;20052;-85
2021/06/13 01:41:32;;;;;;;0.20;0.20;;;;;;;9.51;74.81;101634.69;5052650;28;20049;-86
2021/06/13 01:44:07;;;;;;;0.20;0.20;;;;;;;9.52;75.34;101633.59;5061990;28;20059;-85
2021/06/13 01:46:40;;;;;;;0.10;0.10;;;;;;;9.17;76.74;101587.72;5060400;28;20053;-87
2021/06/13 01:49:18;;;;;;;0.10;0.10;;;;;;;9.38;76.07;101621.44;5031876;28;20056;-86
2021/06/13 01:51:48;;;;;;;0.20;0.20;;;;;;;9.23;75.62;101605.72;5066299;28;20052;-86
2021/06/13 01:54:18;;;;;;;0.20;0.20;;;;;;;9.19;76.51;101602.66;5048105;28;20060;-85
2021/06/13 01:56:50;;;;;;;0.20;0.20;;;;;;;9.25;76.58;101594.63;5051606;28;20045;-86
2021/06/13 01:59:30;;;;;;;0.10;0.10;;;;;;;9.28;76.57;101594.94;5056566;28;20406;-85
2021/06/13 02:02:04;;;;;;;0.20;0.20;;;;;;;9.35;77.25;101605.66;5060068;28;20048;-86
2021/06/13 02:04:38;;;;;;;0.20;0.20;;;;;;;9.11;76.35;101578.66;5040095;28;20045;-86
2021/06/13 02:07:10;;;;;;;0.20;0.20;;;;;;;9.09;76.73;101586.22;5054682;28;20044;-85
2021/06/13 02:09:41;;;;;;;0.20;0.20;;;;;;;9.35;76.64;101616.50;5056853;28;20053;-84
2021/06/13 02:12:10;;;;;;;0.20;0.20;;;;;;;9.39;77.56;101609.50;5044694;28;20041;-86
2021/06/13 02:14:48;;;;;;;;;;;;;;;9.69;76.10;101646.34;5040322;28;20044;-86
2021/06/13 02:18:26;;;;;;;0.30;0.30;;;;;;;9.76;76.32;101649.69;5057130;28;19921;-85
2021/06/13 02:20:59;;;;;;;0.20;0.20;;;;;;;9.56;76.22;101587.75;5052462;28;20064;-85
2021/06/13 02:23:37;;;;;;;0.20;0.20;;;;;;;9.60;76.97;101593.47;5053186;28;20048;-84
2021/06/13 02:26:56;;;;;;;0.25;0.25;;;;;;;10.00;76.13;101652.22;5057083;28;20044;-85
2021/06/13 02:30:29;;;;;;;0.22;0.22;;;;;;;10.10;75.70;101656.97;5043139;28;20061;-86
2021/06/13 02:32:59;;;;;;;0.20;0.20;;;;;;;9.86;74.30;101619.94;5059798;28;20064;-85
2021/06/13 02:35:29;;;;;;;0.20;0.20;;;;;;;9.89;74.65;101632.22;5041539;28;20045;-85
2021/06/13 02:38:01;;;;;;;0.20;0.20;;;;;;;10.17;74.92;101671.19;5061062;28;20051;-85
2021/06/13 02:40:46;;;;;;;0.20;0.20;;;;;;;9.92;74.97;101618.13;5051666;28;20408;-85
2021/06/13 02:43:15;;;;;;;0.20;0.20;;;;;;;9.95;74.45;101620.31;5080286;28;20049;-85
2021/06/13 02:46:14;;;;;;;0.10;0.10;;;;;;;10.18;74.20;101670.13;5048083;28;20504;-84
2021/06/13 02:49:01;;;;;;;0.20;0.20;;;;;;;10.28;75.02;101672.16;5048546;28;20048;-84
2021/06/13 02:51:33;;;;;;;0.20;0.20;;;;;;;10.23;73.93;101666.63;5057807;28;20045;-86
2021/06/13 02:54:09;;;;;;;0.20;0.20;;;;;;;10.01;73.25;101624.75;5057687;28;20045;-84
2021/06/13 02:56:48;;;;;;;0.20;0.20;;;;;;;10.35;73.37;101684.50;5032053;28;20052;-85
2021/06/13 02:59:56;;;;;;;0.28;0.28;;;;;;;10.37;72.40;101679.63;5044623;28;20049;-85
2021/06/13 03:02:25;;;;;;;0.10;0.10;;;;;;;10.27;73.01;101659.59;5040440;28;20049;-86
2021/06/13 03:05:00;;;;;;;0.20;0.20;;;;;;;10.13;73.19;101621.91;5050548;28;20060;-85
2021/06/13 03:07:30;;;;;;;0.20;0.20;;;;;;;10.38;72.36;101647.78;5054943;28;20041;-84
2021/06/13 03:10:12;;;;;;;0.20;0.20;;;;;;;10.36;72.42;101652.69;5051334;28;20057;-85
2021/06/13 03:17:05;;;;;;;0.30;0.30;;;;;;;10.46;72.87;101666.38;5042844;28;20504;-85
2021/06/13 03:19:39;;;;;;;0.20;0.20;;;;;;;10.42;71.88;101662.53;5062614;28;20413;-85
2021/06/13 03:22:10;;;;;;;0.20;0.20;;;;;;;10.57;72.00;101680.94;5034342;28;20052;-85
2021/06/13 03:24:56;;;;;;;0.20;0.20;;;;;;;10.41;71.06;101654.63;5051650;28;20426;-85
2021/06/13 03:27:26;;;;;;;0.13;0.13;;;;;;;10.61;72.32;101676.63;5048031;28;20045;-85
2021/06/13 03:29:59;;;;;;;0.20;0.20;;;;;;;10.48;72.13;101656.09;5060040;28;20403;-85
2021/06/13 03:32:30;;;;;;;0.20;0.20;;;;;;;10.53;72.70;101656.13;5051456;28;20049;-85
2021/06/13 03:35:05;;;;;;;0.20;0.20;;;;;;;10.67;72.45;101672.06;5047283;28;20527;-85
2021/06/13 03:37:34;;;;;;;0.15;0.15;;;;;;;10.59;72.05;101650.75;5054468;28;20052;-84
2021/06/13 03:40:06;;;;;;;0.20;0.20;;;;;;;10.51;73.23;101636.53;5067744;28;20052;-85
2021/06/13 03:43:04;;;;;;;0.20;0.20;;;;;;;10.80;72.29;101693.44;5054253;28;20049;-85
2021/06/13 03:45:33;;;;;;;0.20;0.20;;;;;;;10.51;72.55;101643.88;5035265;28;20080;-85
2021/06/13 03:48:03;;;;;;;0.20;0.20;;;;;;;10.60;72.00;101657.84;5034808;28;20054;-85
2021/06/13 03:50:34;;;;;;;0.15;0.15;;;;;;;10.56;71.62;101654.78;5034124;28;20049;-85
2021/06/13 03:53:03;;;;;;;0.30;0.30;;;;;;;10.87;72.57;101696.78;5061462;28;20056;-84
2021/06/13 03:55:36;;;;;;;0.20;0.20;;;;;;;10.59;72.30;101657.00;5063019;28;20053;-85
2021/06/13 03:58:08;;;;;;;0.20;0.20;;;;;;;10.92;72.21;101708.81;5059107;28;20052;-86
2021/06/13 04:00:38;;;;;;;0.10;0.10;;;;;;;10.92;72.72;101698.72;5056278;28;20049;-85
2021/06/13 04:03:15;;;;;;;0.20;0.20;;;;;;;10.62;71.94;101650.22;5053369;28;20050;-87
2021/06/13 04:11:06;;;;;;;0.30;0.30;;;;;;;11.05;72.22;101702.97;5063208;28;20047;-85
2021/06/13 04:13:37;;;;;;;0.20;0.20;;;;;;;10.59;72.36;101643.38;5046046;28;20494;-86
2021/06/13 04:16:41;;;;;;;0.20;0.20;;;;;;;10.98;72.38;101703.16;5034765;28;20049;-86
2021/06/13 04:19:10;;;;;;;0.20;0.20;;;;;;;11.12;72.41;101706.28;5057380;28;20052;-87
2021/06/13 04:21:40;;;;;;;0.20;0.20;;;;;;;10.99;71.46;101696.63;5049032;28;20626;-85
2021/06/13 04:24:12;;;;;;;0.20;0.20;;;;;;;11.19;70.52;101723.25;5053572;28;20060;-86
2021/06/13 04:26:48;;;;;;;0.20;0.20;;;;;;;10.93;71.55;101675.88;5066114;28;20409;-87
2021/06/13 04:29:19;;;;;;;0.20;0.20;;;;;;;11.06;69.91;101682.78;5063225;28;20053;-85
2021/06/13 04:31:52;;;;;;;0.20;0.20;;;;;;;11.10;69.61;101683.91;5072973;28;20412;-86
2021/06/13 04:34:49;;;;;;;0.10;0.10;;;;;;;11.33;70.19;101722.81;5053332;28;20064;-86
2021/06/13 04:37:21;;;;;;;;;;;;;;;11.33;70.85;101720.09;5047512;28;20049;-84
2021/06/13 04:39:55;;;;;;;0.20;0.20;;;;;;;11.44;70.70;101721.00;5035435;28;19928;-85
2021/06/13 04:42:30;;;;;;;0.10;0.10;;;;;;;11.20;70.19;101685.94;5045021;28;20053;-85
2021/06/13 04:45:00;;;;;;;0.20;0.20;;;;;;;11.58;69.08;101714.81;5050327;28;20053;-84
2021/06/13 04:47:31;;;;;;;0.20;0.20;;;;;;;11.43;69.67;101673.84;5051581;28;20057;-85
2021/06/13 04:50:00;;;;;;;0.10;0.10;;;;;;;11.18;69.46;101652.66;5050185;28;20493;-85
2021/06/13 04:52:31;;;;;;;0.20;0.20;;;;;;;11.32;70.72;101683.00;5044884;28;20050;-86
2021/06/13 04:55:33;;;;;;;0.20;0.20;;;;;;;11.64;68.61;101725.78;5039827;28;20049;-85
2021/06/13 04:58:17;;;;;;;0.20;0.20;;;;;;;11.42;70.37;101695.91;5059612;28;20045;-84
2021/06/13 05:01:40;;;;;;;0.15;0.15;;;;;;;11.70;68.67;101720.09;5071334;28;20051;-84
2021/06/13 05:04:11;;;;;;;0.30;0.20;;;;;;;11.54;68.95;101700.06;5037086;28;20048;-85
2021/06/13 05:06:43;;;;;;;0.20;0.20;;;;;;;11.81;68.87;101706.56;5056557;28;20533;-86
2021/06/13 05:09:19;;;;;;;0.20;0.20;;;;;;;11.67;69.03;101695.25;5045002;28;20052;-86
2021/06/13 05:12:54;;;;;;;0.20;0.20;;;;;;;11.87;69.36;101724.59;5052620;28;20053;-85
2021/06/13 05:19:49;;;;;;;0.30;0.30;;;;;;;11.96;68.63;101728.50;5045902;28;20048;-85
2021/06/13 05:26:47;;;;;;;0.20;0.20;;;;;;;11.90;68.84;101702.22;5043483;28;20052;-86
2021/06/13 05:29:42;;;;;;;0.20;0.20;;;;;;;12.30;68.44;101735.50;5032794;28;20045;-86
2021/06/13 05:32:12;;;;;;;0.10;0.10;;;;;;;12.46;67.37;101725.50;5031450;28;20045;-84
2021/06/13 05:39:07;;;;;;;0.20;0.20;;;;;;;13.60;62.22;101692.63;5043558;28;20037;-85
2021/06/13 05:41:35;;;;;;;0.20;0.20;;;;;;;13.83;63.61;101711.44;5056207;28;20401;-86
2021/06/13 05:44:04;;;;;;;0.20;0.20;;;;;;;13.20;64.77;101679.72;5050531;28;20041;-85
2021/06/13 05:46:32;;;;;;;0.20;0.20;;;;;;;13.45;64.52;101678.97;5048483;28;20084;-86
2021/06/13 05:53:20;;;;;;;0.20;0.20;;;;;;;12.99;65.79;101708.97;5052828;28;20037;-85
2021/06/13 05:55:50;;;;;;;0.10;0.10;;;;;;;12.79;65.50;101696.06;5053869;28;20057;-86
2021/06/13 05:58:20;;;;;;;0.10;0.10;;;;;;;12.70;66.30;101720.38;5048995;28;20490;-85
2021/06/13 06:05:01;;;;;;;0.20;0.20;;;;;;;12.32;65.98;101716.94;5047826;28;20405;-86
2021/06/13 06:11:55;;;;;;;0.20;0.20;;;;;;;12.90;67.10;101761.41;5038815;28;20053;-86
2021/06/13 06:14:24;;;;;;;0.17;0.17;;;;;;;13.00;66.86;101738.75;5066295;28;20043;-84
2021/06/13 06:21:17;;;;;;;0.20;0.20;;;;;;;12.52;67.46;101746.25;5043180;28;20032;-86
2021/06/13 06:23:46;;;;;;;0.20;0.20;;;;;;;12.82;64.72;101753.72;5047786;28;20060;-86
2021/06/13 06:26:41;;;;;;;0.17;0.17;;;;;;;13.34;64.70;101779.25;5031704;28;20727;-84
2021/06/13 06:29:10;;;;;;;0.10;0.10;;;;;;;13.35;64.85;101733.59;5059919;28;20050;-85
2021/06/13 06:35:21;;;;;;;0.15;0.15;;;;;;;13.85;62.10;101773.00;5044570;28;20044;-84
2021/06/13 06:37:50;;;;;;;0.20;0.20;;;;;;;13.66;63.18;101747.28;5043060;28;20076;-85
2021/06/13 06:40:59;;;;;;;0.20;0.20;;;;;;;14.00;60.65;101766.69;5036543;28;20048;-84
2021/06/13 06:43:29;;;;;;;0.20;0.20;;;;;;;13.88;59.71;101779.81;5060164;28;20060;-86
2021/06/13 06:45:59;;;;;;;0.20;0.20;;;;;;;14.08;60.78;101762.56;5053192;28;20050;-85
2021/06/13 06:52:57;;;;;;;0.20;0.20;;;;;;;14.04;60.20;101766.97;5069510;28;20040;-86
2021/06/13 06:55:25;;;;;;;0.13;0.13;;;;;;;13.56;60.34;101759.91;5060756;28;20056;-85
2021/06/13 06:57:55;;;;;;;0.20;0.20;;;;;;;13.37;60.50;101767.00;5050036;28;20124;-86
2021/06/13 07:00:46;;;;;;;0.10;0.10;;;;;;;13.39;62.33;101778.47;5062198;28;20055;-84
2021/06/13 07:03:15;;;;;;;0.20;0.20;;;;;;;13.10;62.36;101757.91;5057307;28;20509;-84
2021/06/13 07:06:40;;;;;;;0.20;0.20;;;;;;;13.25;63.40;101805.47;5048066;28;20046;-84
2021/06/13 07:09:09;;;;;;;0.20;0.20;;;;;;;13.17;63.75;101787.69;5045752;28;20053;-85
2021/06/13 07:12:28;;;;;;;0.17;0.17;;;;;;;13.38;64.76;101806.91;5059053;28;20040;-84
2021/06/13 07:19:00;;;;;;;0.20;0.20;;;;;;;13.13;63.88;101791.25;5053977;28;20408;-85
2021/06/13 07:21:30;;;;;;;0.20;0.20;;;;;;;13.08;64.82;101792.88;5035750;28;20402;-84
2021/06/13 07:27:27;;;;;;;0.15;0.15;;;;;;;13.39;64.84;101814.81;5051769;28;20049;-84
2021/06/13 07:30:00;;;;;;;0.20;0.20;;;;;;;13.08;64.57;101813.94;5036234;28;20048;-83
2021/06/13 07:32:37;;;;;;;0.10;0.10;;;;;;;13.12;63.60;101819.66;5037184;28;20049;-84
2021/06/13 07:36:06;;;;;;;0.17;0.17;;;;;;;13.69;65.03;101837.03;5043105;28;20052;-83
2021/06/13 07:38:40;;;;;;;0.20;0.20;;;;;;;13.40;63.94;101840.28;5043941;28;20041;-84
2021/06/13 07:41:08;;;;;;;0.20;0.20;;;;;;;13.75;61.55;101819.50;5047677;28;20045;-83
2021/06/13 07:43:47;;;;;;;0.20;0.20;;;;;;;14.23;63.61;101836.44;5048752;28;20692;-84
2021/06/13 07:46:44;;;;;;;0.20;0.20;;;;;;;14.73;61.34;101858.53;5053238;28;20400;-85
2021/06/13 07:49:16;;;;;;;0.20;0.20;;;;;;;14.99;60.59;101836.53;5057040;28;20057;-83
2021/06/13 07:51:54;;;;;;;0.20;0.20;;;;;;;15.30;60.78;101842.66;5056172;28;20051;-85
2021/06/13 07:54:31;;;;;;;0.10;0.10;;;;;;;14.54;59.74;101791.72;5054852;28;20060;-83
2021/06/13 07:57:00;;;;;;;0.20;0.20;;;;;;;14.71;59.39;101816.09;5055234;28;20057;-83
2021/06/13 07:59:39;;;;;;;0.20;0.20;;;;;;;14.64;58.67;101838.31;5069354;28;20052;-84
2021/06/13 08:02:13;;;;;;;0.20;0.20;;;;;;;15.29;60.01;101853.94;5052584;28;20048;-83
2021/06/13 08:04:54;;;;;;;0.10;0.10;;;;;;;15.46;57.72;101861.78;5055956;28;20052;-83
2021/06/13 08:07:24;;;;;;;0.20;0.20;;;;;;;14.62;57.23;101799.38;5055536;28;20053;-86
2021/06/13 08:09:59;;;;;;;0.20;0.20;;;;;;;14.89;57.16;101847.53;5053402;28;20051;-86
2021/06/13 08:12:27;;;;;;;0.20;0.20;;;;;;;15.18;57.43;101836.72;5054075;28;20037;-85
2021/06/13 08:15:00;;;;;;;0.20;0.20;;;;;;;15.13;53.19;101844.94;5056126;28;20393;-87
2021/06/13 08:17:38;;;;;;;0.20;0.20;;;;;;;15.01;55.29;101869.97;5053540;28;20424;-86
2021/06/13 08:20:12;;;;;;;0.10;0.10;;;;;;;14.80;57.49;101861.00;5052211;28;20053;-86
2021/06/13 08:22:46;;;;;;;0.20;0.20;;;;;;;14.58;58.98;101842.97;5049146;28;20056;-86
2021/06/13 08:25:27;;;;;;;0.20;0.20;;;;;;;14.51;57.89;101860.78;5052683;28;20047;-86
2021/06/13 08:28:29;;;;;;;0.20;0.20;;;;;;;14.45;59.56;101887.34;5060683;28;20045;-84
2021/06/13 08:30:57;;;;;;;0.20;0.20;;;;;;;14.36;60.67;101867.94;5055640;28;20501;-86
2021/06/13 08:33:31;;;;;;;0.10;0.10;;;;;;;14.24;61.50;101853.72;5052052;28;20052;-86
2021/06/13 08:35:59;;;;;;;0.20;0.20;;;;;;;14.31;62.21;101872.56;5055915;28;20041;-85
2021/06/13 08:38:27;;;;;;;0.20;0.20;;;;;;;14.52;60.80;101874.19;5054760;28;20048;-88
2021/06/13 08:41:07;;;;;;;0.20;0.20;;;;;;;14.61;61.18;101910.88;5050675;28;20485;-85
2021/06/13 08:44:29;;;;;;;0.20;0.20;;;;;;;15.10;61.24;101927.78;5050642;28;20091;-83
2021/06/13 08:47:05;;;;;;;0.10;0.10;;;;;;;14.81;60.03;101889.22;5052885;28;20056;-86
2021/06/13 08:49:40;;;;;;;0.20;0.20;;;;;;;14.61;59.54;101888.13;5054504;28;20053;-87
2021/06/13 08:52:09;;;;;;;0.20;0.20;;;;;;;15.05;58.83;101894.88;5056141;28;20044;-86
2021/06/13 08:54:51;;;;;;;0.20;0.20;;;;;;;15.47;58.05;101926.50;5053491;28;20071;-86
2021/06/13 08:57:21;;;;;;;0.10;0.10;;;;;;;15.33;59.46;101903.53;5048846;28;20048;-87
2021/06/13 09:00:07;;;;;;;0.20;0.20;;;;;;;15.70;60.38;101919.53;5045838;28;20053;-86
2021/06/13 09:03:25;;;;;;;0.20;0.20;;;;;;;15.79;57.35;101925.22;5050040;28;20682;-85
2021/06/13 09:05:57;;;;;;;0.20;0.20;;;;;;;15.24;56.33;101889.59;5053774;28;20488;-86
2021/06/13 09:08:42;;;;;;;0.20;0.20;;;;;;;14.70;60.00;101916.66;5050189;28;20053;-86
2021/06/13 09:11:26;;;;;;;0.20;0.20;;;;;;;14.76;59.59;101939.38;5055024;28;20057;-92
2021/06/13 09:14:11;;;;;;;0.20;0.20;;;;;;;15.11;62.16;101938.47;5052161;28;20057;-85
2021/06/13 09:16:40;;;;;;;0.20;0.20;;;;;;;15.04;59.31;101898.72;5053322;28;20048;-87
2021/06/13 09:19:10;;;;;;;0.20;0.20;;;;;;;15.65;57.94;101886.63;5053061;28;20064;-85
2021/06/13 09:21:40;;;;;;;0.17;0.17;;;;;;;15.88;59.89;101923.56;5055310;28;20072;-86
2021/06/13 09:24:21;;;;;;;0.20;0.20;;;;;;;15.38;56.93;101881.56;5052905;28;20051;-85
2021/06/13 09:26:56;;;;;;;0.20;0.20;;;;;;;16.25;57.49;101896.63;5060648;28;20595;-84
2021/06/13 09:29:51;;;;;;;0.20;0.20;;;;;;;16.77;54.97;101932.66;5052598;28;20065;-87
2021/06/13 09:32:27;;;;;;;0.20;0.20;;;;;;;16.25;53.72;101899.34;5052732;28;20044;-85
2021/06/13 09:35:20;;;;;;;0.20;0.20;;;;;;;16.09;53.14;101935.19;5052165;28;20067;-85
2021/06/13 09:38:13;;;;;;;0.22;0.22;;;;;;;16.32;52.27;101916.31;5048952;28;20057;-84
2021/06/13 09:40:44;;;;;;;0.20;0.20;;;;;;;16.46;53.06;101880.75;5052045;28;20093;-87
2021/06/13 09:43:15;;;;;;;0.20;0.20;;;;;;;16.64;54.41;101923.16;5051113;28;20512;-87
2021/06/13 09:46:01;;;;;;;0.20;0.20;;;;;;;16.31;54.79;101929.25;5052941;28;20048;-86
2021/06/13 09:48:50;;;;;;;0.10;0.10;;;;;;;16.12;56.21;101959.34;5052208;28;20516;-86
2021/06/13 09:51:20;;;;;;;0.20;0.20;;;;;;;16.08;59.36;101924.50;5051109;28;20052;-85
2021/06/13 09:53:56;;;;;;;0.20;0.20;;;;;;;16.13;55.94;101939.00;5049825;28;20060;-85
2021/06/13 09:56:26;;;;;;;0.20;0.20;;;;;;;16.03;58.74;101961.03;5048439;28;20508;-85
2021/06/13 09:59:07;;;;;;;0.20;0.20;;;;;;;15.93;57.70;101948.19;5051617;28;20416;-86
2021/06/13 10:01:39;;;;;;;0.10;0.10;;;;;;;15.90;58.91;101931.50;5050056;28;20052;-85
2021/06/13 10:04:26;;;;;;;0.13;0.13;;;;;;;16.02;59.70;101933.88;5054359;28;20041;-84
2021/06/13 10:06:59;;;;;;;0.10;0.10;;;;;;;16.31;59.42;101964.16;5050622;28;20045;-85
2021/06/13 10:09:37;;;;;;;0.20;0.20;;;;;;;15.81;59.94;101912.88;5050701;28;20057;-86
2021/06/13 10:12:07;;;;;;;0.10;0.10;;;;;;;16.10;58.16;101961.56;5053204;28;20053;-85
2021/06/13 10:15:12;;;;;;;0.20;0.20;;;;;;;16.37;57.28;101954.75;5053363;28;20045;-84
2021/06/13 10:17:52;;;;;;;0.17;0.17;;;;;;;16.25;56.25;101905.66;5051751;28;20060;-85
2021/06/13 10:20:25;;;;;;;0.10;0.10;;;;;;;16.61;56.32;101929.22;5052953;28;20053;-84
2021/06/13 10:22:55;;;;;;;0.20;0.20;;;;;;;16.86;53.83;101941.88;5050111;28;20045;-87
2021/06/13 10:25:26;;;;;;;0.20;0.20;;;;;;;16.46;55.10;101938.44;5047937;28;20157;-85
2021/06/13 10:27:59;;;;;;;0.20;0.20;;;;;;;16.00;55.24;101920.44;5042282;28;20053;-84
2021/06/13 10:30:36;;;;;;;0.20;0.20;;;;;;;15.78;57.20;101915.34;5045744;28;21334;-84
2021/06/13 10:33:29;;;;;;;0.15;0.15;;;;;;;15.96;58.29;101946.81;5043611;28;20408;-86
2021/06/13 10:36:02;;;;;;;0.20;0.20;;;;;;;16.32;57.85;101963.00;5041767;28;20059;-84
2021/06/13 10:38:31;;;;;;;0.20;0.20;;;;;;;16.29;55.79;101933.38;5042553;28;20064;-86
2021/06/13 10:41:03;;;;;;;0.30;0.20;;;;;;;16.54;55.69;101964.50;5040161;28;20048;-86
2021/06/13 10:43:45;;;;;;;0.20;0.20;;;;;;;16.10;53.99;101920.38;5037249;28;20061;-85
2021/06/13 10:46:44;;;;;;;0.10;0.10;;;;;;;15.98;54.93;101972.06;5039458;28;20060;-85
2021/06/13 10:49:33;;;;;;;0.20;0.20;;;;;;;16.53;54.70;101949.09;5040604;28;20067;-83
2021/06/13 10:52:08;;;;;;;0.10;0.10;;;;;;;16.20;54.38;101948.84;5044065;28;20085;-84
2021/06/13 10:55:06;;;;;;;0.20;0.20;;;;;;;15.95;55.06;101969.88;5040258;28;21338;-85
2021/06/13 10:57:44;;;;;;;0.17;0.17;;;;;;;15.61;56.36;101930.25;5038159;28;20076;-84
2021/06/13 11:00:28;;;;;;;0.15;0.15;;;;;;;16.05;55.54;101967.06;5043378;28;20048;-85
2021/06/13 11:03:00;;;;;;;0.10;0.10;;;;;;;16.60;56.27;101960.56;5044059;28;20041;-84
2021/06/13 11:05:53;;;;;;;0.20;0.20;;;;;;;17.09;53.05;101922.97;5041283;28;20091;-84
2021/06/13 11:08:26;;;;;;;0.20;0.20;;;;;;;17.12;52.49;101897.63;5041469;28;20056;-87
2021/06/13 11:10:59;;;;;;;0.20;0.20;;;;;;;17.73;51.85;101919.91;5042402;28;20511;-88
2021/06/13 11:13:32;;;;;;;0.20;0.20;;;;;;;17.65;52.31;101927.72;5043301;28;20057;-86
2021/06/13 11:16:13;;;;;;;0.20;0.20;;;;;;;18.10;51.43;101965.09;5043544;28;20049;-86
2021/06/13 11:18:45;;;;;;;0.10;0.10;;;;;;;17.67;52.51;101964.03;5041459;28;20072;-85
2021/06/13 11:21:22;;;;;;;0.10;0.10;;;;;;;17.50;52.62;101955.47;5042982;28;20053;-85
2021/06/13 11:24:02;;;;;;;;;;;;;;;17.70;51.48;101962.63;5043548;28;20064;-85
2021/06/13 11:26:40;;;;;;;0.20;0.20;;;;;;;17.58;51.26;101945.72;5051859;28;19939;-87
2021/06/13 11:29:14;;;;;;;0.20;0.20;;;;;;;17.23;52.47;101923.88;5043219;28;20120;-84
2021/06/13 11:31:53;;;;;;;0.20;0.20;;;;;;;16.57;52.89;101890.53;5040845;28;20061;-85
2021/06/13 11:34:23;;;;;;;0.20;0.20;;;;;;;17.19;52.10;101964.09;5045251;28;20056;-86
2021/06/13 11:36:54;;;;;;;0.20;0.20;;;;;;;17.14;53.83;101936.69;5048963;28;20048;-85
2021/06/13 11:39:56;;;;;;;0.20;0.20;;;;;;;17.95;51.98;101957.88;5045097;28;20107;-83
2021/06/13 11:42:27;;;;;;;0.10;0.10;;;;;;;17.45;50.53;101961.03;5043929;28;20115;-86
2021/06/13 11:45:00;;;;;;;0.13;0.13;;;;;;;17.38;52.48;101939.38;5044672;28;20064;-87
2021/06/13 11:47:35;;;;;;;0.20;0.20;;;;;;;17.59;51.10;101952.88;5048857;28;20055;-84
2021/06/13 11:50:35;;;;;;;0.20;0.20;;;;;;;17.82;55.68;101960.25;5045968;28;20079;-85
2021/06/13 11:53:12;;;;;;;0.20;0.20;;;;;;;17.60;50.25;101921.47;5042090;28;20053;-86
2021/06/13 11:56:00;;;;;;;0.20;0.20;;;;;;;18.15;52.53;101930.03;5042834;28;20053;-86
2021/06/13 11:58:33;;;;;;;0.10;0.10;;;;;;;18.45;51.83;101951.84;5044831;28;20064;-84
2021/06/13 12:01:05;;;;;;;0.10;0.10;;;;;;;17.45;52.02;101941.78;5046616;28;20064;-83
2021/06/13 12:03:38;;;;;;;0.20;0.20;;;;;;;17.23;50.98;101934.88;5050241;28;20056;-83
2021/06/13 12:06:17;;;;;;;0.28;0.20;;;;;;;17.61;53.31;101918.44;5051022;28;20049;-85
2021/06/13 12:08:50;;;;;;;0.20;0.20;;;;;;;18.45;51.05;101952.66;5045271;28;20063;-84
2021/06/13 12:11:44;;;;;;;0.10;0.10;;;;;;;18.30;49.31;101958.44;5046219;28;20059;-85
2021/06/13 12:14:22;;;;;;;0.30;0.20;;;;;;;17.90;52.63;101952.41;5050323;28;20064;-86
2021/06/13 12:17:16;;;;;;;0.20;0.20;;;;;;;17.59;50.18;101903.31;5046199;28;20049;-85
2021/06/13 12:19:49;;;;;;;0.10;0.10;;;;;;;18.25;51.19;101930.97;5046884;28;20068;-84
2021/06/13 12:22:31;;;;;;;0.10;0.10;;;;;;;18.16;49.10;101928.91;5044541;28;21304;-86
2021/06/13 12:27:55;;;;;;;0.20;0.20;;;;;;;18.02;48.89;101928.03;5046118;28;20072;-85
2021/06/13 12:30:30;;;;;;;0.10;0.10;;;;;;;17.41;51.73;101919.53;5043021;28;20064;-86
2021/06/13 12:33:05;;;;;;;0.20;0.20;;;;;;;17.75;52.24;101954.28;5039648;28;21512;-84
2021/06/13 12:35:37;;;;;;;0.20;0.20;;;;;;;18.14;52.27;101933.88;5046571;28;20060;-84
2021/06/13 12:38:12;;;;;;;0.20;0.20;;;;;;;18.62;49.68;101956.78;5045989;28;20052;-84
2021/06/13 12:40:54;;;;;;;0.10;0.10;;;;;;;18.65;48.97;101951.47;5046322;28;20068;-85
2021/06/13 12:46:38;;;;;;;0.20;0.20;;;;;;;18.91;47.81;101947.47;5044576;28;19928;-85
2021/06/13 12:49:06;;;;;;;0.20;0.20;;;;;;;17.98;49.40;101933.31;5045405;28;20045;-86
2021/06/13 12:51:42;;;;;;;0.10;0.10;;;;;;;18.26;51.22;101968.44;5054004;28;20057;-84
2021/06/13 12:54:14;;;;;;;0.10;0.10;;;;;;;18.21;50.92;101941.75;5043647;28;20056;-85
2021/06/13 12:57:11;;;;;;;0.20;0.20;;;;;;;18.47;49.65;101971.66;5044377;28;20083;-85
2021/06/13 12:59:47;;;;;;;0.20;0.20;;;;;;;18.01;48.59;101938.22;5043967;28;20052;-85
2021/06/13 13:02:21;;;;;;;0.20;0.20;;;;;;;18.45;50.54;101922.34;5045962;28;20048;-86
2021/06/13 13:04:52;;;;;;;0.17;0.17;;;;;;;19.08;50.92;101955.13;5045461;28;20048;-84
2021/06/13 13:07:32;;;;;;;0.10;0.10;;;;;;;18.49;50.93;101920.63;5043901;28;20060;-87
2021/06/13 13:10:22;;;;;;;0.20;0.20;;;;;;;18.41;50.24;101953.56;5048601;28;20067;-85
2021/06/13 13:12:58;;;;;;;0.10;0.10;;;;;;;18.44;49.54;101955.72;5046478;28;20084;-84
2021/06/13 13:15:32;;;;;;;0.10;0.10;;;;;;;18.30;49.63;101944.66;5047638;28;21250;-85
2021/06/13 13:18:13;;;;;;;0.10;0.10;;;;;;;18.45;48.65;101958.19;5045021;28;20044;-85
2021/06/13 13:20:46;;;;;;;0.20;0.20;;;;;;;18.41;49.87;101943.38;5043625;28;20705;-85
2021/06/13 13:24:16;;;;;;;0.20;0.20;;;;;;;18.80;49.36;101944.84;5043420;28;20068;-85
2021/06/13 13:27:02;;;;;;;0.10;0.10;;;;;;;18.96;51.11;101926.13;5045282;28;20139;-86
2021/06/13 13:29:44;;;;;;;0.10;0.10;;;;;;;18.72;50.65;101918.00;5044731;28;20059;-85
2021/06/13 13:32:52;;;;;;;0.10;0.10;;;;;;;18.41;51.66;101939.78;5044801;28;20052;-86
2021/06/13 13:35:33;;;;;;;0.25;0.20;;;;;;;18.83;50.63;101922.19;5064537;28;20052;-86
2021/06/13 13:38:05;;;;;;;0.10;0.10;;;;;;;18.87;49.49;101905.84;5042818;28;20064;-86
2021/06/13 13:40:50;;;;;;;0.10;0.10;;;;;;;18.59;47.22;101888.44;5046158;28;20071;-85
2021/06/13 13:43:20;;;;;;;0.20;0.20;;;;;;;18.45;49.42;101914.09;5041024;28;20057;-85